Time;durP1;ratioP1;P1;durP2;ratioP2;P2;SDS_P1;SDS_P2;PMS_P1;PMS_P2;Temp;Humidity;BMP_temperature;BMP_pressure;BME280_temperature;BME280_humidity;BME280_pressure;Samples;Min_cycle;Max_cycle;Signal;HPM_P1;HPM_P2
2022/07/25 00:01:00;;;;;;;1.40;1.30;;;18.60;99.90;;;;;;5057404;28;20645;-69
2022/07/25 00:03:26;;;;;;;1.97;1.73;;;18.60;99.90;;;;;;5057098;28;20253;-69
2022/07/25 00:05:52;;;;;;;2.17;1.73;;;18.70;99.90;;;;;;5057155;28;20597;-69
2022/07/25 00:08:17;;;;;;;1.17;1.13;;;18.70;99.90;;;;;;5057052;28;20190;-69
2022/07/25 00:10:43;;;;;;;1.50;1.20;;;18.60;99.90;;;;;;5057020;28;20180;-70
2022/07/25 00:13:09;;;;;;;2.50;2.20;;;18.60;99.90;;;;;;5056831;28;20170;-70
2022/07/25 00:15:35;;;;;;;1.77;1.67;;;18.60;99.90;;;;;;5056889;28;20428;-70
2022/07/25 00:18:00;;;;;;;2.93;1.47;;;18.60;99.90;;;;;;5056791;28;20292;-70
2022/07/25 00:20:26;;;;;;;1.80;1.70;;;18.60;99.90;;;;;;5056995;28;20180;-69
2022/07/25 00:22:52;;;;;;;2.30;2.10;;;18.60;99.90;;;;;;5056827;28;20174;-70
2022/07/25 00:25:17;;;;;;;1.67;1.57;;;18.60;99.90;;;;;;5056873;28;20678;-70
2022/07/25 00:27:43;;;;;;;3.37;1.50;;;18.60;99.90;;;;;;5056880;28;20197;-70
2022/07/25 00:30:09;;;;;;;2.10;1.40;;;18.60;99.90;;;;;;5056606;28;20258;-70
2022/07/25 00:32:35;;;;;;;2.37;1.87;;;18.50;99.90;;;;;;5056396;28;20170;-69
2022/07/25 00:35:00;;;;;;;1.33;1.23;;;18.50;99.90;;;;;;5056798;28;20461;-70
2022/07/25 00:37:26;;;;;;;5.10;1.77;;;18.50;99.90;;;;;;5056604;28;20277;-68
2022/07/25 00:39:52;;;;;;;1.80;1.70;;;18.50;99.90;;;;;;5056453;28;20181;-70
2022/07/25 00:42:17;;;;;;;5.63;3.50;;;18.50;99.90;;;;;;5056459;28;20174;-69
2022/07/25 00:44:43;;;;;;;1.07;1.00;;;18.60;99.90;;;;;;5056095;28;20197;-70
2022/07/25 00:47:09;;;;;;;1.70;1.60;;;18.60;99.90;;;;;;5056243;28;20170;-70
2022/07/25 00:49:34;;;;;;;1.30;1.30;;;18.50;99.90;;;;;;5056298;28;20409;-70
2022/07/25 00:52:00;;;;;;;2.60;2.00;;;18.50;99.90;;;;;;5038330;28;20260;-69
2022/07/25 00:54:27;;;;;;;1.37;1.30;;;18.50;99.90;;;;;;5056224;28;20179;-70
2022/07/25 00:56:53;;;;;;;2.03;1.83;;;18.50;99.90;;;;;;5056167;28;20417;-70
2022/07/25 00:59:19;;;;;;;2.67;1.80;;;18.60;99.90;;;;;;5056477;28;20835;-68
2022/07/25 01:01:46;;;;;;;1.50;1.37;;;18.70;99.90;;;;;;5056184;28;20276;-70
2022/07/25 01:04:12;;;;;;;2.10;2.00;;;18.70;99.90;;;;;;5055878;28;20250;-70
2022/07/25 01:06:38;;;;;;;1.53;1.43;;;18.70;99.90;;;;;;5056070;28;20415;-70
2022/07/25 01:09:04;;;;;;;2.13;1.70;;;18.60;99.90;;;;;;5036676;28;20872;-69
2022/07/25 01:11:29;;;;;;;3.80;2.77;;;18.60;99.90;;;;;;5056385;28;20166;-70
2022/07/25 01:13:55;;;;;;;1.73;1.60;;;18.50;99.90;;;;;;5055691;28;20630;-68
2022/07/25 01:16:21;;;;;;;2.50;2.40;;;18.50;99.90;;;;;;5055880;28;20174;-68
2022/07/25 01:18:46;;;;;;;1.87;1.77;;;18.50;99.90;;;;;;5055709;28;20617;-69
2022/07/25 01:21:13;;;;;;;2.17;1.47;;;18.50;99.90;;;;;;5055885;28;20649;-70
2022/07/25 01:23:39;;;;;;;2.97;2.77;;;18.50;99.90;;;;;;5055548;28;20173;-69
2022/07/25 01:26:05;;;;;;;2.20;1.83;;;18.40;99.90;;;;;;5055500;28;20456;-70
2022/07/25 01:28:30;;;;;;;2.00;1.60;;;18.40;99.90;;;;;;5055487;28;20470;-69
2022/07/25 01:30:56;;;;;;;1.40;1.07;;;18.40;99.90;;;;;;5055768;28;20174;-69
2022/07/25 01:33:22;;;;;;;2.53;1.30;;;18.40;99.90;;;;;;5055317;28;20178;-69
2022/07/25 01:35:48;;;;;;;1.17;1.13;;;18.40;99.90;;;;;;5055605;28;20503;-70
2022/07/25 01:38:15;;;;;;;1.30;1.20;;;18.40;99.90;;;;;;5055580;28;20194;-68
2022/07/25 01:40:42;;;;;;;2.10;2.00;;;18.40;99.90;;;;;;5055350;28;20409;-68
2022/07/25 01:43:08;;;;;;;2.20;2.10;;;18.40;99.90;;;;;;5055576;28;20738;-70
2022/07/25 01:45:34;;;;;;;2.77;1.80;;;18.40;99.90;;;;;;5055258;28;20463;-70
2022/07/25 01:48:00;;;;;;;1.37;1.27;;;18.30;99.90;;;;;;5055218;28;20212;-69
2022/07/25 01:50:26;;;;;;;2.67;2.43;;;18.40;99.90;;;;;;5055338;28;20409;-69
2022/07/25 01:52:51;;;;;;;1.47;1.37;;;18.30;99.90;;;;;;5055140;28;20170;-70
2022/07/25 01:55:17;;;;;;;1.50;1.40;;;18.30;99.90;;;;;;5055124;28;20304;-70
2022/07/25 01:57:43;;;;;;;1.67;1.57;;;18.30;99.90;;;;;;5054999;28;20190;-69
2022/07/25 02:00:12;;;;;;;1.77;1.67;;;18.30;99.90;;;;;;5055020;28;20253;-69
2022/07/25 02:02:39;;;;;;;1.60;1.50;;;18.20;99.90;;;;;;5054845;28;20423;-69
2022/07/25 02:05:06;;;;;;;2.80;2.60;;;18.20;99.90;;;;;;5054951;28;20512;-70
2022/07/25 02:07:32;;;;;;;8.63;2.30;;;18.20;99.90;;;;;;5054938;28;20416;-71
2022/07/25 02:09:58;;;;;;;1.70;1.40;;;18.20;99.90;;;;;;5054576;28;20466;-69
2022/07/25 02:12:24;;;;;;;2.50;2.30;;;18.20;99.90;;;;;;5054819;28;20198;-69
2022/07/25 02:14:55;;;;;;;1.67;1.57;;;18.20;99.90;;;;;;5053998;28;20256;-69
2022/07/25 02:17:21;;;;;;;2.40;2.10;;;18.20;99.90;;;;;;5054451;28;20404;-69
2022/07/25 02:19:47;;;;;;;2.43;1.40;;;18.30;99.90;;;;;;5052737;28;20786;-69
2022/07/25 02:35:56;;;;;;;2.13;1.80;;;18.40;99.90;;;;;;5051307;28;20522;-70
2022/07/25 02:38:22;;;;;;;1.13;1.03;;;18.40;99.90;;;;;;5031191;28;20445;-68
2022/07/25 02:40:49;;;;;;;1.20;1.13;;;18.40;99.90;;;;;;5034268;28;20550;-69
2022/07/25 02:43:15;;;;;;;4.30;3.50;;;18.40;99.90;;;;;;5034514;28;20163;-70
2022/07/25 02:45:40;;;;;;;2.57;2.37;;;18.40;99.90;;;;;;5034017;28;20449;-70
2022/07/25 02:48:06;;;;;;;2.47;2.20;;;18.40;99.90;;;;;;5034705;28;20811;-69
2022/07/25 02:50:32;;;;;;;1.87;1.77;;;18.40;99.90;;;;;;5034272;28;20684;-68
2022/07/25 02:52:57;;;;;;;1.43;1.27;;;18.30;99.90;;;;;;5033424;28;20669;-69
2022/07/25 02:55:23;;;;;;;2.30;2.10;;;18.30;99.90;;;;;;5034077;28;20250;-70
2022/07/25 02:57:49;;;;;;;2.13;2.03;;;18.30;99.90;;;;;;5034003;28;20434;-70
2022/07/25 03:00:16;;;;;;;3.17;2.90;;;18.30;99.90;;;;;;5034086;28;20409;-69
2022/07/25 03:02:42;;;;;;;2.03;1.60;;;18.30;99.90;;;;;;5033901;28;20174;-69
2022/07/25 03:05:10;;;;;;;3.93;3.30;;;18.30;99.90;;;;;;5034208;28;20448;-69
2022/07/25 03:07:36;;;;;;;2.63;2.40;;;18.30;99.90;;;;;;5034249;28;20433;-69
2022/07/25 03:10:04;;;;;;;1.17;1.07;;;18.40;99.90;;;;;;5034093;28;20405;-69
2022/07/25 03:12:31;;;;;;;2.10;1.70;;;18.40;99.90;;;;;;5033561;28;20398;-69
2022/07/25 03:14:57;;;;;;;2.43;2.23;;;18.30;99.90;;;;;;5033208;28;20436;-70
2022/07/25 03:17:23;;;;;;;5.03;2.63;;;18.30;99.90;;;;;;5033419;28;20800;-70
2022/07/25 03:19:49;;;;;;;2.60;1.90;;;18.20;99.90;;;;;;5033246;28;20497;-69
2022/07/25 03:22:15;;;;;;;2.70;2.30;;;18.30;99.90;;;;;;5033595;28;20406;-70
2022/07/25 03:24:40;;;;;;;1.63;1.53;;;18.30;99.90;;;;;;5032851;28;20536;-69
2022/07/25 03:27:06;;;;;;;1.60;1.50;;;18.30;99.90;;;;;;5033521;28;20566;-69
2022/07/25 03:29:32;;;;;;;1.90;1.53;;;18.30;99.90;;;;;;5033980;28;20201;-69
2022/07/25 03:31:58;;;;;;;2.57;2.37;;;18.30;99.90;;;;;;5033197;28;20174;-69
2022/07/25 03:34:24;;;;;;;2.40;2.20;;;18.20;99.90;;;;;;5033140;28;20460;-69
2022/07/25 03:36:49;;;;;;;2.20;2.00;;;18.20;99.90;;;;;;5033360;28;20816;-70
2022/07/25 03:39:15;;;;;;;2.13;1.40;;;18.20;99.90;;;;;;5034145;28;20245;-73
2022/07/25 03:41:41;;;;;;;2.03;1.83;;;18.30;99.90;;;;;;5033922;28;20522;-72
2022/07/25 03:44:06;;;;;;;4.10;3.13;;;18.60;99.90;;;;;;5033812;28;20250;-71
2022/07/25 03:46:32;;;;;;;2.17;1.60;;;19.00;99.90;;;;;;5033610;28;20213;-70
2022/07/25 03:48:58;;;;;;;1.77;1.67;;;19.30;99.90;;;;;;5033070;28;20245;-70
2022/07/25 03:51:23;;;;;;;3.23;2.93;;;19.30;99.90;;;;;;5031868;28;20206;-71
2022/07/25 03:54:01;;;;;;;1.33;1.07;;;19.10;99.90;;;;;;5033263;28;20167;-69
2022/07/25 03:56:37;;;;;;;2.03;1.83;;;19.00;99.90;;;;;;5033643;28;20187;-70
2022/07/25 03:59:07;;;;;;;2.73;1.83;;;18.90;99.90;;;;;;5033889;28;20405;-71
2022/07/25 04:01:33;;;;;;;1.20;1.20;;;18.70;99.90;;;;;;5033282;28;20402;-71
2022/07/25 04:03:59;;;;;;;2.90;2.03;;;18.60;99.90;;;;;;5033145;28;20406;-70
2022/07/25 04:06:25;;;;;;;2.03;1.43;;;18.60;99.90;;;;;;5033212;28;20465;-68
2022/07/25 04:08:52;;;;;;;1.97;1.87;;;18.60;99.90;;;;;;5033553;28;20402;-70
2022/07/25 04:11:20;;;;;;;2.37;2.10;;;18.50;99.90;;;;;;5033570;28;20485;-69
2022/07/25 04:13:47;;;;;;;2.67;1.60;;;18.40;99.90;;;;;;5031645;28;20467;-70
2022/07/25 04:16:14;;;;;;;1.60;1.50;;;18.40;99.90;;;;;;5033168;28;20894;-69
2022/07/25 04:18:40;;;;;;;1.83;1.73;;;18.30;99.90;;;;;;5033425;28;20441;-69
2022/07/25 04:21:06;;;;;;;2.53;2.00;;;18.30;99.90;;;;;;5033548;28;20500;-69
2022/07/25 04:23:33;;;;;;;2.90;2.70;;;18.30;99.90;;;;;;5033296;28;20908;-70
2022/07/25 04:25:58;;;;;;;2.50;2.33;;;18.30;99.90;;;;;;5033515;28;20453;-70
2022/07/25 04:28:25;;;;;;;2.00;1.90;;;18.30;99.90;;;;;;5033505;28;20534;-69
2022/07/25 04:30:51;;;;;;;1.80;1.70;;;18.30;99.90;;;;;;5032968;28;20173;-69
2022/07/25 04:33:19;;;;;;;1.93;1.80;;;18.30;99.90;;;;;;5033127;28;20406;-69
2022/07/25 04:35:45;;;;;;;2.00;1.60;;;18.30;99.90;;;;;;5033284;28;20401;-69
2022/07/25 04:38:11;;;;;;;2.23;2.03;;;18.40;99.90;;;;;;5033365;28;20790;-70
2022/07/25 04:40:37;;;;;;;1.40;1.30;;;18.40;99.90;;;;;;5033342;28;20414;-69
2022/07/25 04:43:04;;;;;;;5.80;2.40;;;18.40;99.90;;;;;;5032720;28;20654;-70
2022/07/25 04:45:31;;;;;;;1.80;1.57;;;18.40;99.90;;;;;;5036568;28;20450;-69
2022/07/25 04:47:57;;;;;;;2.00;1.90;;;18.30;99.90;;;;;;5036800;28;20446;-69
2022/07/25 04:50:24;;;;;;;2.30;2.00;;;18.40;99.90;;;;;;5036804;28;20402;-70
2022/07/25 04:52:50;;;;;;;1.97;1.70;;;18.50;99.90;;;;;;5036405;28;20170;-70
2022/07/25 04:55:15;;;;;;;1.70;1.60;;;18.70;99.90;;;;;;5036965;28;20494;-68
2022/07/25 04:57:41;;;;;;;1.97;1.20;;;19.00;99.90;;;;;;5036957;28;20505;-68
2022/07/25 05:00:09;;;;;;;2.63;2.43;;;19.30;99.90;;;;;;5018636;28;20646;-69
2022/07/25 05:02:35;;;;;;;2.37;2.27;;;19.70;99.90;;;;;;5036341;28;20170;-69
2022/07/25 05:05:01;;;;;;;2.73;1.33;;;20.10;99.90;;;;;;5034561;28;20445;-69
2022/07/25 05:07:27;;;;;;;1.10;1.10;;;20.70;99.90;;;;;;5036231;28;20487;-70
2022/07/25 05:09:53;;;;;;;1.27;1.27;;;21.30;99.90;;;;;;5035521;28;20899;-69
2022/07/25 05:12:19;;;;;;;1.47;1.37;;;21.70;99.90;;;;;;5035021;28;20678;-69
2022/07/25 05:14:45;;;;;;;2.20;2.00;;;21.80;99.40;;;;;;5035903;28;20411;-69
2022/07/25 05:17:10;;;;;;;2.10;2.00;;;21.90;99.50;;;;;;5035882;28;20426;-70
2022/07/25 05:19:36;;;;;;;1.30;1.20;;;22.00;99.10;;;;;;5035692;28;20649;-70
2022/07/25 05:22:03;;;;;;;1.07;1.07;;;22.20;98.80;;;;;;5035879;28;20183;-70
2022/07/25 05:24:32;;;;;;;1.80;1.70;;;22.30;98.40;;;;;;5036006;28;20462;-71
2022/07/25 05:26:58;;;;;;;1.77;1.67;;;22.30;98.00;;;;;;5035836;28;20792;-71
2022/07/25 05:29:23;;;;;;;2.40;1.40;;;22.60;98.10;;;;;;5035387;28;20499;-70
2022/07/25 05:31:49;;;;;;;2.70;2.07;;;23.10;97.00;;;;;;5034227;28;20535;-71
2022/07/25 05:34:14;;;;;;;2.53;1.53;;;23.60;96.90;;;;;;5035265;28;20167;-71
2022/07/25 05:36:40;;;;;;;1.73;1.63;;;24.00;96.40;;;;;;5035234;28;20610;-71
2022/07/25 05:39:06;;;;;;;2.50;2.37;;;24.20;95.60;;;;;;5034873;28;20175;-70
2022/07/25 05:41:31;;;;;;;2.57;2.07;;;24.10;95.10;;;;;;5035393;28;20177;-70
2022/07/25 05:43:57;;;;;;;1.43;1.33;;;23.80;95.30;;;;;;5034814;28;20692;-70
2022/07/25 05:46:23;;;;;;;2.03;1.93;;;23.60;95.70;;;;;;5035346;28;20256;-70
2022/07/25 05:48:48;;;;;;;1.63;1.50;;;23.40;96.30;;;;;;5035020;28;20266;-71
2022/07/25 05:51:14;;;;;;;1.60;1.30;;;23.40;96.30;;;;;;5035488;28;20253;-70
2022/07/25 05:53:39;;;;;;;1.70;1.60;;;23.40;96.30;;;;;;5035190;28;20574;-70
2022/07/25 05:56:05;;;;;;;1.70;1.60;;;23.50;96.70;;;;;;5017023;28;20177;-70
2022/07/25 05:58:31;;;;;;;1.73;1.63;;;23.50;96.90;;;;;;5035309;28;20232;-71
2022/07/25 06:00:58;;;;;;;2.90;2.10;;;23.60;96.80;;;;;;5035294;28;20762;-70
2022/07/25 06:03:23;;;;;;;1.80;1.67;;;24.00;96.30;;;;;;5035122;28;20492;-71
2022/07/25 06:05:49;;;;;;;1.57;1.47;;;24.30;95.80;;;;;;5035433;28;20824;-70
2022/07/25 06:08:15;;;;;;;2.50;1.93;;;24.50;95.30;;;;;;5035006;28;20675;-71
2022/07/25 06:10:41;;;;;;;1.53;1.43;;;24.50;95.50;;;;;;5034905;28;20207;-70
2022/07/25 06:13:07;;;;;;;1.40;1.30;;;24.50;95.40;;;;;;5034960;28;20170;-71
2022/07/25 06:15:32;;;;;;;2.20;1.93;;;24.40;95.40;;;;;;5034832;28;20405;-69
2022/07/25 06:17:58;;;;;;;1.40;0.93;;;24.30;95.90;;;;;;5035136;28;20666;-70
2022/07/25 06:20:24;;;;;;;3.33;2.20;;;24.50;96.20;;;;;;5033464;28;20172;-70
2022/07/25 06:22:49;;;;;;;2.50;1.93;;;24.80;96.80;;;;;;5034300;28;20167;-70
2022/07/25 06:25:15;;;;;;;1.97;1.87;;;25.70;95.10;;;;;;5033454;28;20202;-71
2022/07/25 06:27:41;;;;;;;4.03;2.43;;;26.70;93.40;;;;;;5032453;28;20214;-71
2022/07/25 06:30:08;;;;;;;1.67;1.40;;;27.40;91.70;;;;;;5033330;28;20380;-70
2022/07/25 06:32:34;;;;;;;2.30;2.20;;;28.20;90.60;;;;;;5034550;28;20181;-70
2022/07/25 06:35:00;;;;;;;2.77;1.83;;;28.80;89.30;;;;;;5035109;28;20402;-71
2022/07/25 06:37:25;;;;;;;2.93;2.00;;;29.00;86.60;;;;;;5033764;28;20207;-72
2022/07/25 06:39:51;;;;;;;2.37;1.70;;;29.10;84.90;;;;;;5035198;28;20441;-72
2022/07/25 06:42:17;;;;;;;2.30;2.10;;;29.00;86.20;;;;;;5033661;28;20190;-70
2022/07/25 06:44:43;;;;;;;2.90;1.97;;;28.70;84.60;;;;;;5034127;28;20477;-71
2022/07/25 06:47:11;;;;;;;2.00;1.70;;;28.60;87.20;;;;;;5015765;28;20587;-71
2022/07/25 06:49:46;;;;;;;2.30;1.83;;;28.90;86.50;;;;;;5033966;28;20170;-70
2022/07/25 06:52:12;;;;;;;1.43;1.33;;;29.90;83.50;;;;;;5032172;28;20412;-71
2022/07/25 06:54:38;;;;;;;2.37;2.17;;;30.90;81.70;;;;;;5033020;28;20410;-73
2022/07/25 06:57:03;;;;;;;1.63;1.53;;;31.70;76.60;;;;;;5033105;28;20190;-71
2022/07/25 06:59:29;;;;;;;2.17;1.97;;;32.50;74.80;;;;;;5032138;28;20171;-72
2022/07/25 07:01:55;;;;;;;1.47;1.37;;;33.20;69.70;;;;;;5033954;28;20171;-71
2022/07/25 07:04:20;;;;;;;2.57;1.90;;;33.70;66.60;;;;;;5032082;28;20171;-71
2022/07/25 07:06:46;;;;;;;1.50;1.40;;;34.30;65.10;;;;;;5032222;28;20245;-72
2022/07/25 07:09:12;;;;;;;1.93;1.70;;;34.80;63.50;;;;;;5032675;28;20221;-72
2022/07/25 07:11:38;;;;;;;2.47;2.27;;;35.60;59.70;;;;;;5032589;28;20166;-71
2022/07/25 07:14:03;;;;;;;2.30;2.20;;;36.30;57.90;;;;;;5034103;28;20529;-71
2022/07/25 07:16:30;;;;;;;1.33;1.23;;;36.70;55.20;;;;;;5032474;28;20439;-71
2022/07/25 07:18:56;;;;;;;1.90;1.80;;;36.40;53.70;;;;;;5034513;28;20263;-72
2022/07/25 07:21:22;;;;;;;2.53;2.33;;;35.60;55.40;;;;;;5033663;28;20448;-71
2022/07/25 07:23:48;;;;;;;1.53;1.43;;;35.20;54.20;;;;;;5015623;28;20418;-71
2022/07/25 07:26:14;;;;;;;1.90;1.60;;;34.90;54.90;;;;;;5033905;28;20206;-71
2022/07/25 07:28:39;;;;;;;1.70;1.60;;;34.90;53.20;;;;;;5032830;28;20822;-72
2022/07/25 07:31:05;;;;;;;2.03;1.53;;;35.20;52.00;;;;;;5034115;28;20227;-71
2022/07/25 07:33:34;;;;;;;2.60;1.90;;;35.50;48.70;;;;;;5032560;28;20201;-70
2022/07/25 07:36:00;;;;;;;1.30;1.20;;;36.00;47.30;;;;;;5034173;28;20175;-71
2022/07/25 07:38:26;;;;;;;1.83;1.60;;;36.70;47.60;;;;;;5032825;28;20806;-71
2022/07/25 07:40:52;;;;;;;2.03;1.80;;;36.90;44.30;;;;;;5029415;28;20429;-72
2022/07/25 07:43:18;;;;;;;2.37;1.93;;;37.80;43.30;;;;;;5031508;28;20185;-72
2022/07/25 07:45:44;;;;;;;1.60;1.50;;;38.80;42.60;;;;;;5030930;28;20457;-71
2022/07/25 07:48:10;;;;;;;2.43;2.23;;;39.30;40.70;;;;;;5031961;28;20430;-70
2022/07/25 07:50:35;;;;;;;2.70;1.63;;;40.10;38.50;;;;;;5031985;28;20178;-70
2022/07/25 07:53:01;;;;;;;1.83;1.73;;;40.40;36.60;;;;;;5031199;28;20179;-69
2022/07/25 07:55:47;;;;;;;1.40;1.30;;;40.80;35.30;;;;;;5032029;28;20646;-69
2022/07/25 07:58:17;;;;;;;1.50;1.40;;;41.10;34.70;;;;;;5033868;28;20654;-68
2022/07/25 08:00:45;;;;;;;1.77;1.67;;;41.00;33.60;;;;;;5033347;28;20784;-69
2022/07/25 08:03:11;;;;;;;1.63;1.50;;;40.70;32.90;;;;;;5033457;28;20413;-70
2022/07/25 08:05:41;;;;;;;1.67;1.57;;;40.70;32.50;;;;;;5032513;28;20469;-69
2022/07/25 08:08:09;;;;;;;2.03;1.50;;;40.80;33.40;;;;;;5033526;28;20425;-69
2022/07/25 08:10:38;;;;;;;1.20;1.10;;;41.30;32.90;;;;;;5033533;28;20420;-70
2022/07/25 08:13:24;;;;;;;1.70;1.47;;;41.90;32.50;;;;;;5033247;28;20417;-70
2022/07/25 08:15:56;;;;;;;2.13;1.10;;;42.80;32.80;;;;;;5033717;28;20413;-69
2022/07/25 08:18:24;;;;;;;1.63;1.53;;;43.20;31.70;;;;;;5033859;28;20475;-70
2022/07/25 08:20:50;;;;;;;1.47;1.37;;;43.40;31.00;;;;;;5036685;28;20405;-69
2022/07/25 08:23:17;;;;;;;1.63;1.53;;;43.20;30.30;;;;;;5035875;28;20751;-70
2022/07/25 08:25:44;;;;;;;1.20;1.10;;;43.10;31.60;;;;;;5034788;28;20465;-70
2022/07/25 08:28:10;;;;;;;1.97;1.87;;;43.10;30.00;;;;;;5037126;28;20430;-70
2022/07/25 08:30:38;;;;;;;1.50;1.40;;;43.40;29.90;;;;;;5037052;28;20428;-71
2022/07/25 08:33:09;;;;;;;1.60;1.50;;;43.50;29.20;;;;;;5019401;28;20417;-69
2022/07/25 08:35:36;;;;;;;1.93;1.83;;;42.70;28.80;;;;;;5019969;28;20884;-70
2022/07/25 08:38:03;;;;;;;1.47;1.37;;;42.10;29.80;;;;;;5018962;28;20461;-70
2022/07/25 08:40:30;;;;;;;1.13;1.13;;;42.50;30.20;;;;;;5019712;28;20437;-70
2022/07/25 08:43:00;;;;;;;2.30;1.73;;;43.10;29.80;;;;;;5036702;28;20887;-71
2022/07/25 08:45:27;;;;;;;1.63;1.40;;;43.20;29.30;;;;;;5035003;28;20461;-69
2022/07/25 08:47:54;;;;;;;1.80;1.70;;;43.80;29.20;;;;;;5035606;28;20425;-70
2022/07/25 08:50:22;;;;;;;1.27;1.27;;;44.00;28.50;;;;;;5035659;28;20405;-70
2022/07/25 08:52:49;;;;;;;1.53;1.43;;;43.50;28.60;;;;;;5033871;28;20405;-70
2022/07/25 08:55:21;;;;;;;2.10;2.00;;;43.70;29.00;;;;;;5034631;28;20497;-70
2022/07/25 08:57:51;;;;;;;1.67;1.57;;;44.50;29.30;;;;;;5035406;28;21029;-70
2022/07/25 09:00:23;;;;;;;1.50;1.40;;;45.10;28.50;;;;;;5035472;28;20413;-69
2022/07/25 09:02:53;;;;;;;2.20;1.67;;;45.20;27.90;;;;;;5036070;28;20415;-70
2022/07/25 09:05:23;;;;;;;1.80;1.30;;;45.50;28.00;;;;;;5035039;28;20971;-71
2022/07/25 09:07:51;;;;;;;1.97;1.87;;;45.70;27.30;;;;;;5037006;28;20429;-70
2022/07/25 09:10:19;;;;;;;1.30;1.20;;;45.60;28.20;;;;;;5036410;28;20709;-70
2022/07/25 09:13:06;;;;;;;2.27;2.07;;;44.90;28.40;;;;;;5036016;28;20409;-70
2022/07/25 09:15:35;;;;;;;2.40;1.83;;;44.50;27.40;;;;;;5036752;28;20402;-70
2022/07/25 09:18:13;;;;;;;1.30;1.20;;;42.70;27.90;;;;;;5035974;28;20991;-70
2022/07/25 09:20:43;;;;;;;1.20;1.10;;;42.10;29.10;;;;;;5036398;28;20405;-70
2022/07/25 09:23:11;;;;;;;1.57;1.47;;;41.60;30.60;;;;;;5035264;28;20406;-71
2022/07/25 09:25:37;;;;;;;1.63;1.53;;;41.90;29.30;;;;;;5034525;28;20946;-70
2022/07/25 09:28:15;;;;;;;1.70;1.60;;;41.70;29.00;;;;;;5036411;28;20551;-70
2022/07/25 09:30:53;;;;;;;1.63;1.53;;;41.20;30.20;;;;;;5033765;28;20397;-70
2022/07/25 09:33:20;;;;;;;1.60;1.27;;;40.80;29.30;;;;;;5035970;28;20397;-70
2022/07/25 09:35:46;;;;;;;1.20;1.10;;;40.60;31.30;;;;;;5035832;28;20408;-70
2022/07/25 09:38:14;;;;;;;3.93;1.27;;;40.80;29.70;;;;;;5034462;28;20445;-70
2022/07/25 09:40:40;;;;;;;1.20;1.20;;;40.70;30.20;;;;;;5033765;28;20182;-70
2022/07/25 09:43:06;;;;;;;1.90;1.70;;;40.70;30.70;;;;;;5034997;28;20448;-70
2022/07/25 09:45:32;;;;;;;1.30;1.10;;;40.20;31.50;;;;;;5035514;28;20452;-70
2022/07/25 09:48:03;;;;;;;2.70;2.40;;;40.70;32.90;;;;;;5017779;28;20437;-70
2022/07/25 09:50:32;;;;;;;1.70;1.60;;;41.00;31.10;;;;;;5035838;28;20167;-70
2022/07/25 09:53:01;;;;;;;1.50;1.40;;;40.50;30.90;;;;;;5035478;28;20766;-70
2022/07/25 09:55:27;;;;;;;1.57;1.47;;;40.50;31.50;;;;;;5035667;28;20406;-69
2022/07/25 09:57:53;;;;;;;1.90;1.80;;;40.70;31.30;;;;;;5035324;28;20508;-69
2022/07/25 10:00:22;;;;;;;1.67;1.53;;;40.40;32.20;;;;;;5035621;28;20828;-70
2022/07/25 10:02:54;;;;;;;1.37;1.27;;;40.20;31.10;;;;;;5035121;28;20213;-70
2022/07/25 10:05:22;;;;;;;1.50;1.40;;;40.10;31.10;;;;;;5035543;28;20495;-69
2022/07/25 10:07:54;;;;;;;1.93;1.73;;;39.90;31.00;;;;;;5035477;28;20505;-69
2022/07/25 10:10:36;;;;;;;2.47;2.27;;;39.80;32.90;;;;;;5034557;28;20404;-70
2022/07/25 10:13:10;;;;;;;1.83;1.73;;;39.40;31.10;;;;;;5016275;28;20579;-69
2022/07/25 10:15:48;;;;;;;1.60;1.50;;;39.30;33.30;;;;;;5034349;28;20802;-69
2022/07/25 10:18:16;;;;;;;1.40;1.30;;;39.60;33.70;;;;;;5034218;28;20491;-70
2022/07/25 10:20:44;;;;;;;1.50;1.40;;;39.70;31.30;;;;;;5034697;28;20454;-70
2022/07/25 10:23:35;;;;;;;1.30;1.20;;;39.60;34.60;;;;;;5034756;28;20405;-69
2022/07/25 10:26:12;;;;;;;2.40;1.70;;;39.20;33.70;;;;;;5012589;28;20461;-69
2022/07/25 10:28:46;;;;;;;1.30;1.20;;;38.80;33.00;;;;;;5034918;28;20389;-69
2022/07/25 10:31:44;;;;;;;1.60;1.50;;;38.50;33.40;;;;;;5034715;28;20402;-70
2022/07/25 10:34:14;;;;;;;1.77;1.67;;;38.40;35.80;;;;;;5011048;28;20421;-69
2022/07/25 10:36:54;;;;;;;1.30;1.20;;;38.20;34.50;;;;;;5034622;28;20432;-69
2022/07/25 10:39:21;;;;;;;1.87;1.77;;;38.10;35.30;;;;;;5016713;28;20492;-69
2022/07/25 10:42:01;;;;;;;1.90;1.40;;;38.30;35.20;;;;;;5034263;28;20414;-69
2022/07/25 10:44:38;;;;;;;1.87;1.70;;;37.80;35.20;;;;;;5034596;28;20414;-71
2022/07/25 10:47:05;;;;;;;1.60;1.50;;;37.80;36.00;;;;;;5034474;28;20437;-71
2022/07/25 10:49:35;;;;;;;1.70;1.60;;;37.40;34.70;;;;;;5034298;28;20497;-71
2022/07/25 10:52:03;;;;;;;1.40;1.30;;;37.30;37.20;;;;;;5034300;28;20424;-72
2022/07/25 10:54:34;;;;;;;1.97;1.80;;;37.40;38.60;;;;;;5034196;28;20770;-72
2022/07/25 10:57:00;;;;;;;1.50;1.40;;;37.10;35.90;;;;;;5034443;28;20464;-72
2022/07/25 10:59:28;;;;;;;1.10;1.00;;;36.90;36.70;;;;;;5033178;28;20402;-71
2022/07/25 11:01:53;;;;;;;1.70;1.50;;;36.50;35.80;;;;;;5032738;28;20179;-72
2022/07/25 11:04:19;;;;;;;1.70;1.60;;;36.10;38.70;;;;;;5033877;28;20401;-71
2022/07/25 11:06:46;;;;;;;1.10;1.03;;;35.70;38.40;;;;;;5032866;28;20256;-71
2022/07/25 11:09:17;;;;;;;1.47;1.37;;;35.30;37.70;;;;;;5033611;28;20171;-71
2022/07/25 11:11:51;;;;;;;1.30;1.20;;;34.90;37.60;;;;;;5016582;28;20405;-71
2022/07/25 11:14:40;;;;;;;1.20;1.10;;;34.40;38.40;;;;;;5034411;28;20408;-71
2022/07/25 11:17:29;;;;;;;1.43;1.33;;;34.30;38.50;;;;;;5034587;28;20429;-71
2022/07/25 11:20:07;;;;;;;3.00;1.30;;;34.20;40.30;;;;;;5034162;28;20521;-71
2022/07/25 11:22:34;;;;;;;1.13;1.00;;;34.10;38.90;;;;;;5033969;28;20393;-71
2022/07/25 11:25:00;;;;;;;1.73;1.63;;;33.90;41.60;;;;;;5034283;28;20442;-69
2022/07/25 11:27:30;;;;;;;2.10;1.90;;;33.90;40.10;;;;;;5033645;28;20909;-71
2022/07/25 11:30:10;;;;;;;1.70;1.60;;;33.80;42.50;;;;;;5033846;28;20405;-71
2022/07/25 11:32:43;;;;;;;1.23;1.07;;;33.60;41.80;;;;;;5033503;28;20421;-71
2022/07/25 11:35:10;;;;;;;3.23;1.30;;;33.50;41.60;;;;;;5034201;28;20440;-71
2022/07/25 11:37:38;;;;;;;1.43;1.30;;;33.10;40.80;;;;;;5033466;28;20450;-71
2022/07/25 11:40:06;;;;;;;2.50;2.10;;;33.10;42.90;;;;;;5033590;28;20786;-71
2022/07/25 11:42:44;;;;;;;1.40;1.27;;;33.10;42.10;;;;;;5033335;28;20913;-71
2022/07/25 11:45:16;;;;;;;1.57;1.20;;;33.20;44.50;;;;;;5033784;28;20447;-70
2022/07/25 11:47:42;;;;;;;1.53;1.43;;;33.40;42.60;;;;;;5033354;28;20422;-71
2022/07/25 11:50:13;;;;;;;1.63;1.00;;;33.50;43.30;;;;;;5034035;28;20536;-71
2022/07/25 11:52:44;;;;;;;1.53;1.43;;;33.40;40.30;;;;;;5033707;28;20167;-71
2022/07/25 11:55:16;;;;;;;1.43;1.23;;;33.40;43.10;;;;;;5040006;28;20877;-71
2022/07/25 11:57:45;;;;;;;1.90;1.80;;;33.20;43.30;;;;;;5020786;28;20441;-71
2022/07/25 12:00:20;;;;;;;1.40;1.30;;;33.10;44.10;;;;;;5022774;28;20504;-71
2022/07/25 12:02:47;;;;;;;1.30;1.03;;;33.20;42.20;;;;;;5040159;28;20763;-70
2022/07/25 12:05:15;;;;;;;1.93;1.80;;;33.10;42.10;;;;;;5040024;28;20452;-72
2022/07/25 12:07:47;;;;;;;1.87;1.70;;;33.20;42.30;;;;;;5038375;28;20418;-71
2022/07/25 12:10:15;;;;;;;1.50;1.40;;;33.00;42.90;;;;;;5040129;28;20412;-72
2022/07/25 12:12:53;;;;;;;1.77;1.50;;;33.10;42.00;;;;;;5020499;28;20417;-71
2022/07/25 12:15:27;;;;;;;1.43;1.33;;;33.30;42.70;;;;;;5040084;28;20405;-71
2022/07/25 12:17:54;;;;;;;2.67;1.70;;;33.40;40.40;;;;;;5021147;28;20448;-72
2022/07/25 12:20:25;;;;;;;2.10;1.50;;;33.40;40.30;;;;;;5038103;28;20409;-71
2022/07/25 12:22:54;;;;;;;1.20;1.00;;;33.30;40.00;;;;;;5037827;28;20409;-71
2022/07/25 12:25:20;;;;;;;2.60;2.37;;;33.20;41.40;;;;;;5038994;28;20449;-71
2022/07/25 12:27:46;;;;;;;1.30;1.20;;;33.00;40.90;;;;;;5039509;28;20800;-71
2022/07/25 12:30:12;;;;;;;1.40;1.17;;;33.00;41.20;;;;;;5039666;28;20480;-71
2022/07/25 12:32:38;;;;;;;1.33;1.23;;;32.90;42.50;;;;;;5039504;28;20175;-71
2022/07/25 12:35:05;;;;;;;1.90;1.30;;;32.70;40.00;;;;;;5039625;28;20460;-71
2022/07/25 12:37:31;;;;;;;1.90;1.60;;;32.50;40.20;;;;;;5039532;28;21014;-71
2022/07/25 12:39:57;;;;;;;1.87;1.77;;;32.40;42.40;;;;;;5039641;28;20414;-72
2022/07/25 12:42:23;;;;;;;2.47;1.83;;;32.40;41.70;;;;;;5039499;28;20170;-71
2022/07/25 12:44:49;;;;;;;1.53;1.43;;;32.10;41.30;;;;;;5039410;28;20767;-71
2022/07/25 12:47:14;;;;;;;2.10;1.50;;;32.10;42.60;;;;;;5039486;28;20448;-72
2022/07/25 12:49:40;;;;;;;2.70;1.80;;;32.40;42.70;;;;;;5039721;28;20167;-72
2022/07/25 12:52:06;;;;;;;1.70;1.50;;;32.70;42.40;;;;;;5039461;28;20175;-72
2022/07/25 12:54:32;;;;;;;1.73;1.63;;;32.90;41.20;;;;;;5039683;28;20186;-72
2022/07/25 12:56:58;;;;;;;2.97;2.17;;;32.90;40.20;;;;;;5039421;28;20425;-71
2022/07/25 12:59:23;;;;;;;1.50;1.40;;;32.60;41.30;;;;;;5039621;28;20182;-72
2022/07/25 13:01:49;;;;;;;1.30;1.20;;;32.70;42.80;;;;;;5039216;28;20262;-71
2022/07/25 13:04:15;;;;;;;2.03;1.87;;;32.40;42.90;;;;;;5039082;28;20171;-72